Time;durP1;ratioP1;P1;durP2;ratioP2;P2;SDS_P1;SDS_P2;PMS_P1;PMS_P2;Temp;Humidity;BMP_temperature;BMP_pressure;BME280_temperature;BME280_humidity;BME280_pressure;Samples;Min_cycle;Max_cycle;Signal;HPM_P1;HPM_P2
2022/12/22 03:25:52;;;;;;;;;4.67;3.00;;;;;13.63;73.77;100308.75;4949509;28;45555;-77
2022/12/22 03:28:18;;;;;;;;;5.67;3.00;;;;;13.58;73.87;100300.03;4936608;28;47170;-78
2022/12/22 03:30:43;;;;;;;;;1.33;1.33;;;;;13.53;73.92;100315.16;4932263;28;45360;-77
2022/12/22 03:33:09;;;;;;;;;3.00;3.00;;;;;13.48;73.65;100321.44;4949707;28;45641;-77
2022/12/22 03:35:34;;;;;;;;;2.00;0.33;;;;;13.42;74.16;100299.53;4931497;28;45368;-78
2022/12/22 03:38:02;;;;;;;;;5.00;2.75;;;;;13.50;74.02;100322.25;4929165;28;45920;-79
2022/12/22 03:40:30;;;;;;;;;2.00;1.00;;;;;13.49;73.77;100328.47;4953478;28;44612;-79
2022/12/22 03:48:24;;;;;;;;;1.00;1.00;;;;;13.42;73.77;100283.66;4957378;28;45258;-77
2022/12/22 03:50:49;;;;;;;;;4.67;2.33;;;;;13.43;73.57;100317.13;4948858;28;45323;-78
2022/12/22 03:53:15;;;;;;;;;1.33;1.33;;;;;13.39;73.70;100290.78;4959539;28;45233;-77
2022/12/22 03:55:40;;;;;;;;;6.67;3.00;;;;;13.40;73.34;100301.31;4961226;28;44735;-77
2022/12/22 03:58:05;;;;;;;;;4.00;4.00;;;;;13.42;73.75;100333.03;4943001;28;45454;-77
2022/12/22 04:00:31;;;;;;;;;3.33;1.67;;;;;13.37;73.69;100304.03;4965277;28;44736;-78
2022/12/22 04:02:57;;;;;;;;;3.50;3.50;;;;;13.39;73.78;100301.34;4954506;28;45754;-77
2022/12/22 04:05:23;;;;;;;;;4.33;2.00;;;;;13.37;73.44;100311.13;4932762;28;45248;-78
2022/12/22 04:07:48;;;;;;;;;2.33;2.00;;;;;13.33;73.63;100317.34;4936879;28;46276;-77
2022/12/22 04:12:58;;;;;;;;;3.67;1.33;;;;;13.32;73.56;100339.41;4929987;28;45431;-77
2022/12/22 04:15:29;;;;;;;;;2.67;1.00;;;;;13.31;73.47;100346.50;4959236;28;45330;-78
2022/12/22 04:17:55;;;;;;;;;4.00;1.00;;;;;13.32;73.87;100353.50;4931101;28;45282;-77
2022/12/22 04:20:22;;;;;;;;;1.67;1.67;;;;;13.35;73.69;100382.53;4943343;28;45514;-77
2022/12/22 04:22:48;;;;;;;;;1.67;1.67;;;;;13.32;73.81;100364.09;4942953;28;45450;-77
2022/12/22 04:25:14;;;;;;;;;0.67;0.67;;;;;13.32;73.82;100392.31;4929690;28;45489;-77
2022/12/22 04:27:40;;;;;;;;;2.00;1.00;;;;;13.35;74.00;100394.88;4941664;28;48220;-77
2022/12/22 04:30:07;;;;;;;;;1.67;1.33;;;;;13.34;73.80;100399.31;4929868;28;45367;-78
2022/12/22 04:32:32;;;;;;;;;4.33;2.00;;;;;13.34;73.47;100394.00;4954734;28;45256;-77
2022/12/22 04:34:58;;;;;;;;;0.00;0.00;;;;;13.36;73.13;100439.78;4936110;28;45425;-77
2022/12/22 04:37:23;;;;;;;;;1.00;1.00;;;;;13.36;73.32;100415.13;4921711;28;46766;-76
2022/12/22 04:39:49;;;;;;;;;3.67;2.67;;;;;13.38;73.26;100415.97;4922924;28;45275;-77
2022/12/22 04:42:14;;;;;;;;;2.00;2.00;;;;;13.40;72.98;100457.34;4922808;28;45231;-77
2022/12/22 04:44:40;;;;;;;;;0.00;0.00;;;;;13.42;73.08;100458.19;4923672;28;45366;-78
2022/12/22 04:47:05;;;;;;;;;2.00;1.00;;;;;13.38;73.10;100456.50;4923657;28;45237;-77
2022/12/22 04:49:30;;;;;;;;;2.67;1.33;;;;;13.38;73.15;100459.13;4935512;28;45606;-78
2022/12/22 04:51:56;;;;;;;;;1.33;1.33;;;;;13.33;72.92;100468.94;4923082;28;45440;-77
2022/12/22 04:54:21;;;;;;;;;2.33;1.67;;;;;13.37;73.10;100483.84;4922986;28;45476;-77
2022/12/22 04:56:47;;;;;;;;;0.67;0.00;;;;;13.35;73.17;100487.41;4928383;28;47147;-77
2022/12/22 04:59:12;;;;;;;;;0.00;0.00;;;;;13.34;73.29;100494.47;4955904;28;45378;-78
2022/12/22 05:01:37;;;;;;;;;1.33;1.33;;;;;13.32;73.13;100498.06;4930197;28;45773;-77
2022/12/22 05:04:03;;;;;;;;;0.00;0.00;;;;;13.31;73.08;100498.94;4941164;28;45428;-77
2022/12/22 05:06:29;;;;;;;;;1.00;1.00;;;;;13.28;73.35;100505.16;4931091;28;46095;-78
2022/12/22 05:08:54;;;;;;;;;0.67;0.67;;;;;13.25;73.48;100513.97;4939444;28;45345;-77
2022/12/22 05:11:20;;;;;;;;;0.00;0.00;;;;;13.20;73.24;100517.59;4930208;28;45548;-77
2022/12/22 05:13:45;;;;;;;;;4.00;3.00;;;;;13.19;73.28;100529.09;4940173;28;45391;-78
2022/12/22 05:16:12;;;;;;;;;2.00;2.00;;;;;13.19;73.17;100540.53;4940622;28;46082;-77
2022/12/22 05:18:39;;;;;;;;;0.00;0.00;;;;;13.18;73.33;100538.81;4940460;28;45426;-76
2022/12/22 05:21:06;;;;;;;;;3.33;1.00;;;;;13.20;73.11;100547.59;4941342;28;45266;-77
2022/12/22 05:23:32;;;;;;;;;4.00;2.00;;;;;13.18;73.18;100537.94;4941583;28;45347;-77
2022/12/22 05:25:57;;;;;;;;;0.67;0.00;;;;;13.20;73.16;100557.25;4928225;28;45515;-77
2022/12/22 05:28:23;;;;;;;;;0.00;0.00;;;;;13.23;73.03;100558.09;4940246;28;46130;-77
2022/12/22 05:30:48;;;;;;;;;0.67;0.67;;;;;13.22;72.70;100552.81;4940317;28;45387;-77
2022/12/22 05:33:14;;;;;;;;;1.00;0.00;;;;;13.29;72.34;100565.06;4941775;28;45360;-77
2022/12/22 05:35:39;;;;;;;;;2.00;1.00;;;;;13.26;72.24;100559.84;4940016;28;46825;-77
2022/12/22 05:38:04;;;;;;;;;3.67;2.00;;;;;13.28;72.41;100565.97;4941518;28;45470;-77
2022/12/22 05:40:30;;;;;;;;;0.00;0.00;;;;;13.24;72.12;100558.97;4941442;28;45250;-77
2022/12/22 05:42:55;;;;;;;;;2.00;2.00;;;;;13.24;72.38;100573.03;4956102;28;45504;-77
2022/12/22 05:45:21;;;;;;;;;2.00;2.00;;;;;13.21;71.99;100574.88;4941416;28;45254;-77
2022/12/22 05:47:49;;;;;;;;;0.00;0.00;;;;;13.27;71.77;100589.78;4941508;28;45331;-78
2022/12/22 05:50:18;;;;;;;;;2.00;2.00;;;;;13.25;71.58;100590.66;4941537;28;45302;-77
2022/12/22 05:52:44;;;;;;;;;0.00;0.00;;;;;13.27;71.36;100595.94;4941179;28;45386;-76
2022/12/22 05:55:10;;;;;;;;;0.00;0.00;;;;;13.30;71.30;100597.66;4934265;28;45458;-77
2022/12/22 05:57:36;;;;;;;;;0.00;0.00;;;;;13.26;71.50;100596.88;4935247;28;45194;-77
2022/12/22 06:00:04;;;;;;;;;2.00;2.00;;;;;13.29;71.61;100598.59;4959539;28;45475;-77
2022/12/22 06:02:30;;;;;;;;;0.00;0.00;;;;;13.30;71.56;100603.81;4943202;28;45257;-77
2022/12/22 06:04:55;;;;;;;;;0.00;0.00;;;;;13.32;71.40;100606.47;4944809;28;45419;-77
2022/12/22 06:07:21;;;;;;;;;0.00;0.00;;;;;13.29;71.63;100604.75;4942911;28;45214;-77
2022/12/22 06:09:46;;;;;;;;;0.00;0.00;;;;;13.30;71.37;100606.47;4925268;28;45485;-77
2022/12/22 06:12:11;;;;;;;;;0.00;0.00;;;;;13.24;71.92;100618.00;4937403;28;45290;-77
2022/12/22 06:14:37;;;;;;;;;0.00;0.00;;;;;13.25;71.92;100624.16;4937647;28;45439;-77
2022/12/22 06:17:02;;;;;;;;;0.00;0.00;;;;;13.24;72.06;100631.22;4935864;28;45526;-77
2022/12/22 06:19:28;;;;;;;;;0.00;0.00;;;;;13.25;71.94;100638.22;4929627;28;45415;-77
2022/12/22 06:21:53;;;;;;;;;0.67;0.00;;;;;13.20;72.57;100652.44;4943896;28;45483;-77
2022/12/22 06:24:18;;;;;;;;;0.00;0.00;;;;;13.14;72.74;100649.88;4931264;28;45357;-77
2022/12/22 06:26:44;;;;;;;;;1.33;0.00;;;;;13.09;73.32;100657.00;4939270;28;45404;-77
2022/12/22 06:29:09;;;;;;;;;1.00;0.00;;;;;13.01;73.62;100665.06;4937872;28;45347;-78
2022/12/22 06:31:35;;;;;;;;;0.00;0.00;;;;;12.92;74.75;100666.06;4937343;28;45280;-77
2022/12/22 06:34:00;;;;;;;;;0.33;0.33;;;;;12.88;75.09;100663.50;4943741;28;45397;-78
2022/12/22 06:36:25;;;;;;;;;0.00;0.00;;;;;12.85;75.50;100674.97;4943980;28;45303;-77
2022/12/22 06:38:51;;;;;;;;;0.00;0.00;;;;;12.73;75.59;100665.47;4925231;28;45324;-77
2022/12/22 06:43:07;;;;;;;;;0.00;0.00;;;;;12.71;75.69;100682.22;4924349;28;45188;-77
2022/12/22 06:44:04;;;;;;;;;0.00;0.00;;;;;12.68;76.46;100683.13;4933474;28;45895;-78
2022/12/22 06:46:30;;;;;;;;;0.00;0.00;;;;;12.65;76.68;100683.19;4941238;28;45238;-77
2022/12/22 06:48:55;;;;;;;;;0.67;0.00;;;;;12.64;77.11;100693.75;4948512;28;45196;-77
2022/12/22 06:51:21;;;;;;;;;0.00;0.00;;;;;12.65;77.07;100696.38;4942271;28;45584;-77
2022/12/22 06:53:46;;;;;;;;;1.33;0.33;;;;;12.62;77.40;100688.50;4943675;28;45451;-77
2022/12/22 06:56:11;;;;;;;;;2.00;1.67;;;;;12.55;77.42;100692.13;4940794;28;45334;-77
2022/12/22 06:58:37;;;;;;;;;0.67;0.33;;;;;12.58;77.38;100700.88;4933432;28;45286;-78
2022/12/22 07:01:02;;;;;;;;;0.67;0.67;;;;;12.57;77.39;100700.91;4939755;28;45438;-77
2022/12/22 07:03:28;;;;;;;;;2.00;1.00;;;;;12.54;77.60;100707.09;4922930;28;48315;-78
2022/12/22 07:05:53;;;;;;;;;2.67;2.00;;;;;12.51;77.52;100704.50;4935731;28;45935;-77
2022/12/22 07:08:18;;;;;;;;;4.00;1.33;;;;;12.53;77.78;100707.97;4933151;28;45306;-77
2022/12/22 07:10:59;;;;;;;;;4.00;3.00;;;;;12.56;77.62;100714.97;4939384;28;45611;-77
2022/12/22 07:13:31;;;;;;;;;2.00;1.67;;;;;12.53;77.87;100707.97;4949694;28;47266;-77
2022/12/22 07:15:57;;;;;;;;;4.00;3.00;;;;;12.56;77.87;100714.97;4939577;28;45280;-78
2022/12/22 07:18:23;;;;;;;;;3.33;3.00;;;;;12.56;78.16;100722.91;4929806;28;45377;-77
2022/12/22 07:20:48;;;;;;;;;3.00;1.00;;;;;12.59;78.45;100725.53;4935295;28;45339;-78
2022/12/22 07:23:14;;;;;;;;;3.33;2.33;;;;;12.52;78.24;100713.28;4924075;28;46402;-79
2022/12/22 07:25:39;;;;;;;;;4.67;3.00;;;;;12.55;78.38;100724.66;4936656;28;45201;-78
2022/12/22 07:28:06;;;;;;;;;6.00;5.67;;;;;12.53;78.28;100717.66;4924041;28;45320;-79
2022/12/22 07:30:32;;;;;;;;;3.67;3.33;;;;;12.52;78.07;100719.44;4952209;28;45436;-77
2022/12/22 07:32:57;;;;;;;;;2.00;2.00;;;;;12.57;78.15;100727.31;4934352;28;46645;-79
2022/12/22 07:35:23;;;;;;;;;6.50;3.50;;;;;12.60;78.25;100737.84;4938233;28;45453;-79
2022/12/22 07:37:48;;;;;;;;;8.25;6.00;;;;;12.58;78.10;100739.59;4941709;28;45624;-79
2022/12/22 07:40:15;;;;;;;;;7.75;6.25;;;;;12.60;78.31;100747.53;4930041;28;45562;-78
2022/12/22 07:42:43;;;;;;;;;8.25;5.00;;;;;12.54;78.20;100737.91;4954258;28;47815;-78
2022/12/22 07:45:19;;;;;;;;;7.00;4.00;;;;;12.51;77.77;100736.19;4941371;28;45420;-79
2022/12/22 07:47:45;;;;;;;;;6.50;5.50;;;;;12.53;77.76;100741.44;4941513;28;45215;-78
2022/12/22 07:50:27;;;;;;;;;5.75;3.25;;;;;12.53;77.65;100738.78;4936325;28;45285;-78
2022/12/22 07:53:02;;;;;;;;;13.25;6.50;;;;;12.57;77.49;100751.94;4923684;28;47799;-78
2022/12/22 07:55:30;;;;;;;;;4.75;4.25;;;;;12.55;77.63;100743.16;4942385;28;45348;-78
2022/12/22 07:57:55;;;;;;;;;7.50;6.00;;;;;12.53;77.72;100744.94;4938660;28;45234;-78
2022/12/22 08:00:22;;;;;;;;;9.50;7.75;;;;;12.57;77.53;100729.94;4931946;28;45713;-79
2022/12/22 08:02:52;;;;;;;;;9.25;4.50;;;;;12.59;77.49;100749.31;4953998;28;47011;-77
2022/12/22 08:05:19;;;;;;;;;8.50;5.00;;;;;12.60;77.26;100739.59;4934079;28;45254;-77
2022/12/22 08:07:47;;;;;;;;;8.25;6.00;;;;;12.60;77.09;100743.13;4937736;28;44703;-77
2022/12/22 08:10:12;;;;;;;;;11.50;10.00;;;;;12.61;77.42;100746.63;4923197;28;45482;-77
2022/12/22 08:12:38;;;;;;;;;12.00;9.75;;;;;12.65;76.86;100753.63;4939017;28;47091;-77
2022/12/22 08:15:05;;;;;;;;;12.25;9.00;;;;;12.62;76.91;100751.91;4942154;28;45336;-76
2022/12/22 08:17:31;;;;;;;;;13.00;7.50;;;;;12.66;76.75;100758.88;4929287;28;45195;-76
2022/12/22 08:19:56;;;;;;;;;9.25;7.00;;;;;12.65;76.81;100754.50;4942097;28;45545;-77
2022/12/22 08:22:23;;;;;;;;;11.25;9.00;;;;;12.72;76.60;100766.75;4938461;28;45355;-76
2022/12/22 08:24:49;;;;;;;;;6.00;5.67;;;;;12.72;76.20;100769.38;4931222;28;45389;-77
2022/12/22 08:27:20;;;;;;;;;10.75;8.75;;;;;12.70;76.29;100763.25;4925755;28;45346;-78
2022/12/22 08:29:50;;;;;;;;;7.50;5.50;;;;;12.78;76.01;100777.22;4922167;28;46220;-77
2022/12/22 08:32:15;;;;;;;;;11.00;6.00;;;;;12.75;75.77;100769.34;4951882;28;46153;-77
2022/12/22 08:34:41;;;;;;;;;11.25;7.75;;;;;12.85;75.81;100785.94;4927934;28;45310;-77
2022/12/22 08:37:14;;;;;;;;;11.25;7.00;;;;;12.83;75.45;100771.91;4935526;28;45258;-78
2022/12/22 08:39:43;;;;;;;;;15.75;9.25;;;;;12.85;75.55;100770.09;4922809;28;45255;-77
2022/12/22 08:42:12;;;;;;;;;10.00;7.00;;;;;12.91;75.25;100766.50;4940686;28;45360;-76
2022/12/22 08:44:37;;;;;;;;;12.25;7.25;;;;;12.94;75.33;100766.47;4941618;28;45224;-76
2022/12/22 08:47:03;;;;;;;;;12.25;8.75;;;;;12.99;75.28;100760.22;4921042;28;45335;-77
2022/12/22 08:49:29;;;;;;;;;13.75;9.00;;;;;13.01;74.88;100758.41;4933691;28;45478;-76
2022/12/22 08:51:55;;;;;;;;;11.33;7.67;;;;;13.04;74.90;100765.44;4933791;28;45626;-77
2022/12/22 08:54:20;;;;;;;;;7.00;5.75;;;;;13.07;74.91;100775.09;4930772;28;45785;-77
2022/12/22 08:56:46;;;;;;;;;15.25;10.25;;;;;13.11;74.50;100761.81;4935797;28;45401;-76
2022/12/22 08:59:12;;;;;;;;;10.00;7.50;;;;;13.11;74.60;100759.19;4940161;28;45417;-77
2022/12/22 09:01:41;;;;;;;;;12.75;9.25;;;;;13.09;74.36;100760.09;4940571;28;49509;-77
2022/12/22 09:04:07;;;;;;;;;8.75;6.75;;;;;13.08;74.34;100750.44;4934879;28;45255;-77
2022/12/22 09:06:33;;;;;;;;;13.00;10.25;;;;;13.10;74.23;100765.38;4929174;28;45242;-78
2022/12/22 09:09:00;;;;;;;;;13.75;10.00;;;;;13.08;74.40;100756.59;4928160;28;45402;-79
2022/12/22 09:11:27;;;;;;;;;9.00;8.00;;;;;13.06;73.84;100755.72;4921826;28;45308;-78
2022/12/22 09:13:54;;;;;;;;;16.50;10.50;;;;;13.11;74.12;100758.31;4934569;28;45379;-77
2022/12/22 09:16:21;;;;;;;;;13.75;10.00;;;;;13.11;73.89;100766.25;4943330;28;45459;-81
2022/12/22 09:18:47;;;;;;;;;14.75;8.25;;;;;13.13;73.86;100760.03;4955955;28;45300;-79
2022/12/22 09:21:12;;;;;;;;;9.00;7.00;;;;;13.11;73.63;100745.09;4924600;28;45521;-78
2022/12/22 09:23:37;;;;;;;;;10.00;6.75;;;;;13.13;73.92;100762.69;4921669;28;45367;-79
2022/12/22 09:26:12;;;;;;;;;11.50;7.75;;;;;13.16;73.48;100753.84;4931036;28;45983;-78
2022/12/22 09:28:37;;;;;;;;;13.50;10.00;;;;;13.17;73.55;100753.78;4925410;28;45718;-80
2022/12/22 09:31:04;;;;;;;;;12.75;7.25;;;;;13.24;73.68;100759.88;4954329;28;46939;-78
2022/12/22 09:33:30;;;;;;;;;13.25;11.50;;;;;13.28;73.50;100761.59;4936955;28;45338;-77
2022/12/22 09:35:56;;;;;;;;;12.75;9.25;;;;;13.32;73.06;100759.81;4946833;28;45559;-77
2022/12/22 09:38:25;;;;;;;;;14.50;9.50;;;;;13.35;73.33;100771.19;4962627;28;45510;-77
2022/12/22 09:40:51;;;;;;;;;12.25;8.75;;;;;13.41;73.24;100779.03;4951554;28;45489;-77
2022/12/22 09:43:21;;;;;;;;;8.25;6.25;;;;;13.41;73.02;100767.59;4953503;28;45215;-77
2022/12/22 09:45:46;;;;;;;;;16.25;9.00;;;;;13.53;72.59;100778.00;4955398;28;45546;-77
2022/12/22 09:48:13;;;;;;;;;11.00;5.50;;;;;13.56;72.79;100777.06;4944808;28;45436;-78
2022/12/22 09:50:40;;;;;;;;;11.50;8.75;;;;;13.61;72.62;100778.75;4947462;28;46260;-78
2022/12/22 09:53:15;;;;;;;;;12.00;8.75;;;;;13.66;72.28;100781.34;4964796;28;45406;-78
2022/12/22 09:55:44;;;;;;;;;13.25;10.00;;;;;13.64;72.26;100786.63;4944518;28;45293;-78
2022/12/22 09:58:33;;;;;;;;;15.75;9.75;;;;;13.68;72.53;100804.22;4952009;28;45387;-76
2022/12/22 10:01:04;;;;;;;;;10.00;7.50;;;;;13.70;72.36;100801.53;4966736;28;47389;-78
2022/12/22 10:03:32;;;;;;;;;13.25;9.00;;;;;13.71;72.27;100786.53;4943498;28;45543;-78
2022/12/22 10:06:03;;;;;;;;;13.50;6.00;;;;;13.71;71.95;100786.53;4938542;28;45436;-77
2022/12/22 10:08:34;;;;;;;;;11.50;5.75;;;;;13.76;72.23;100788.19;4938668;28;45564;-76
2022/12/22 10:10:59;;;;;;;;;15.75;7.75;;;;;13.77;72.31;100784.69;4936681;28;46251;-77
2022/12/22 10:13:25;;;;;;;;;15.50;8.00;;;;;13.79;72.29;100779.34;4932327;28;45469;-78
2022/12/22 10:15:52;;;;;;;;;12.75;8.00;;;;;13.77;71.88;100771.44;4939745;28;45624;-77
2022/12/22 10:18:21;;;;;;;;;7.75;5.00;;;;;13.84;71.81;100788.94;4946911;28;45377;-77
2022/12/22 10:21:09;;;;;;;;;13.00;8.00;;;;;13.88;72.11;100779.19;4940597;28;47307;-77
2022/12/22 10:23:39;;;;;;;;;11.50;6.25;;;;;13.93;71.92;100771.19;4941439;28;46076;-76
2022/12/22 10:26:09;;;;;;;;;12.00;7.75;;;;;13.97;71.61;100786.97;4940246;28;45371;-77
2022/12/22 10:29:04;;;;;;;;;11.75;8.75;;;;;14.01;71.73;100791.34;4941636;28;45514;-77
2022/12/22 10:31:33;;;;;;;;;8.67;5.67;;;;;14.04;71.43;100772.75;4940143;28;47049;-77
2022/12/22 10:34:17;;;;;;;;;8.25;6.25;;;;;14.08;71.54;100768.25;4950785;28;45321;-77
2022/12/22 10:36:50;;;;;;;;;10.25;7.75;;;;;14.09;71.37;100767.38;4940497;28;45555;-77
2022/12/22 10:39:25;;;;;;;;;9.75;7.00;;;;;14.16;71.63;100769.00;4953449;28;45434;-80
2022/12/22 10:41:54;;;;;;;;;7.75;7.00;;;;;14.20;71.09;100775.13;4936759;28;46315;-78
2022/12/22 10:44:24;;;;;;;;;7.50;6.00;;;;;14.22;70.66;100776.84;4931903;28;45235;-77
2022/12/22 10:46:52;;;;;;;;;10.00;7.25;;;;;14.20;70.68;100762.75;4940608;28;45462;-78
2022/12/22 10:49:22;;;;;;;;;17.50;11.25;;;;;14.22;70.94;100771.56;4942143;28;45266;-76
2022/12/22 10:51:50;;;;;;;;;10.25;7.25;;;;;14.16;70.62;100765.47;4936187;28;45586;-77
2022/12/22 10:54:34;;;;;;;;;10.50;8.00;;;;;14.21;70.32;100766.28;4938892;28;45370;-78
2022/12/22 10:57:03;;;;;;;;;11.25;8.50;;;;;14.23;70.33;100761.81;4930897;28;45675;-77
2022/12/22 10:59:29;;;;;;;;;11.75;8.25;;;;;14.21;70.41;100763.63;4937233;28;45378;-78
2022/12/22 11:02:21;;;;;;;;;13.00;10.25;;;;;14.24;70.17;100779.44;4928431;28;45386;-78
2022/12/22 11:04:47;;;;;;;;;12.00;8.00;;;;;14.22;70.24;100766.25;4929239;28;45438;-78
2022/12/22 11:07:16;;;;;;;;;12.25;8.75;;;;;14.26;69.82;100772.34;4940302;28;45282;-79
2022/12/22 11:09:42;;;;;;;;;7.75;6.75;;;;;14.25;70.06;100765.31;4955616;28;45494;-78
2022/12/22 11:12:26;;;;;;;;;13.50;7.00;;;;;14.30;70.26;100763.44;4954412;28;48348;-79
2022/12/22 11:15:13;;;;;;;;;12.75;9.25;;;;;14.29;69.67;100765.22;4936910;28;45589;-78
2022/12/22 11:18:01;;;;;;;;;10.50;8.00;;;;;14.31;69.61;100763.41;4936809;28;45684;-79
2022/12/22 11:20:43;;;;;;;;;10.25;10.25;;;;;14.32;69.81;100759.00;4920529;28;45493;-77
2022/12/22 11:23:27;;;;;;;;;16.50;10.25;;;;;14.33;69.70;100764.28;4935944;28;48491;-78
2022/12/22 11:25:55;;;;;;;;;11.50;7.25;;;;;14.32;69.50;100759.00;4938496;28;45396;-79
2022/12/22 11:28:54;;;;;;;;;16.33;8.00;;;;;14.33;69.65;100758.97;4936587;28;45948;-77
2022/12/22 11:31:29;;;;;;;;;10.25;7.75;;;;;14.34;69.39;100759.84;4944588;28;45687;-78
2022/12/22 11:34:39;;;;;;;;;12.00;6.00;;;;;14.33;69.43;100745.72;4936445;28;45395;-79
2022/12/22 11:37:25;;;;;;;;;9.50;6.00;;;;;14.36;69.41;100741.28;4938737;28;45984;-78
2022/12/22 11:40:10;;;;;;;;;7.75;7.00;;;;;14.29;69.25;100741.38;4926080;28;45520;-78
2022/12/22 11:43:05;;;;;;;;;11.00;9.00;;;;;14.38;69.17;100750.94;4943430;28;45394;-78
2022/12/22 11:45:51;;;;;;;;;11.50;9.00;;;;;14.37;69.25;100738.59;4938330;28;47543;-78
2022/12/22 11:48:35;;;;;;;;;12.00;9.00;;;;;14.38;68.79;100740.34;4925790;28;45345;-80
2022/12/22 11:51:35;;;;;;;;;11.25;8.75;;;;;14.40;68.92;100733.22;4930167;28;45406;-78
2022/12/22 11:54:16;;;;;;;;;10.00;9.25;;;;;14.44;69.03;100720.81;4933284;28;45559;-78
2022/12/22 11:56:54;;;;;;;;;17.00;9.75;;;;;14.45;68.99;100718.13;4954232;28;47242;-78
2022/12/22 11:59:36;;;;;;;;;8.00;7.00;;;;;14.50;68.97;100720.69;4953302;28;46027;-78
2022/12/22 12:02:24;;;;;;;;;12.50;10.00;;;;;14.55;68.59;100716.19;4926384;28;45409;-80
2022/12/22 12:04:58;;;;;;;;;7.25;7.00;;;;;14.60;68.43;100721.41;4956194;28;45696;-80
2022/12/22 12:07:35;;;;;;;;;12.00;10.00;;;;;14.54;68.41;100703.84;4937341;28;47588;-78
2022/12/22 12:10:24;;;;;;;;;14.50;7.00;;;;;14.57;68.29;100703.81;4930317;28;45260;-78
2022/12/22 12:13:27;;;;;;;;;12.00;8.50;;;;;14.61;68.18;100718.72;4932813;28;45457;-78
2022/12/22 12:16:01;;;;;;;;;17.00;12.25;;;;;14.58;68.32;100700.25;4933465;28;45411;-79
2022/12/22 12:18:32;;;;;;;;;12.25;10.50;;;;;14.58;68.22;100694.94;4929023;28;46462;-79
2022/12/22 12:21:28;;;;;;;;;9.25;8.50;;;;;14.58;68.42;100702.88;4932849;28;45489;-78
2022/12/22 12:24:13;;;;;;;;;12.50;8.00;;;;;14.51;67.98;100675.63;4938017;28;45270;-79
2022/12/22 12:27:03;;;;;;;;;12.75;8.00;;;;;14.54;68.42;100685.28;4939664;28;45348;-79
2022/12/22 12:30:21;;;;;;;;;12.75;7.75;;;;;14.50;68.24;100671.22;4954794;28;47170;-78
2022/12/22 12:32:56;;;;;;;;;12.75;8.00;;;;;14.52;68.31;100687.09;4934081;28;46137;-79
2022/12/22 12:35:21;;;;;;;;;12.00;9.50;;;;;14.49;68.48;100679.22;4937783;28;46386;-78
2022/12/22 12:37:52;;;;;;;;;9.00;6.00;;;;;14.48;68.25;100672.16;4939578;28;45427;-78
2022/12/22 12:40:30;;;;;;;;;8.33;6.33;;;;;14.49;68.65;100660.69;4936288;28;48575;-77
2022/12/22 12:42:57;;;;;;;;;11.50;6.75;;;;;14.45;68.57;100664.28;4936257;28;45817;-80
2022/12/22 12:45:32;;;;;;;;;10.75;7.00;;;;;14.46;68.59;100652.75;4933536;28;45727;-79
2022/12/22 12:48:19;;;;;;;;;12.00;8.33;;;;;14.44;68.42;100652.81;4925909;28;45660;-79
2022/12/22 12:50:45;;;;;;;;;10.75;8.75;;;;;14.43;68.62;100653.69;4931878;28;47164;-79
2022/12/22 12:53:10;;;;;;;;;9.00;6.67;;;;;14.37;68.73;100642.38;4952038;28;45263;-79
2022/12/22 12:55:39;;;;;;;;;9.50;6.25;;;;;14.39;68.70;100645.88;4940006;28;45575;-85
2022/12/22 12:58:09;;;;;;;;;8.50;7.75;;;;;14.34;69.20;100638.00;4923371;28;45415;-79
2022/12/22 13:00:34;;;;;;;;;11.25;8.25;;;;;14.36;69.05;100640.66;4931571;28;47155;-79
2022/12/22 13:03:22;;;;;;;;;12.25;8.00;;;;;14.32;69.49;100639.81;4936846;28;45489;-77
2022/12/22 13:05:50;;;;;;;;;12.00;9.67;;;;;14.31;69.75;100638.09;4931778;28;45670;-80
2022/12/22 13:08:22;;;;;;;;;12.25;9.25;;;;;14.26;69.70;100630.22;4946786;28;45545;-79
2022/12/22 13:10:47;;;;;;;;;13.75;11.25;;;;;14.20;70.26;100633.00;4923789;28;45611;-78
2022/12/22 13:13:33;;;;;;;;;7.25;5.00;;;;;14.14;70.68;100625.19;4936511;28;45442;-79
2022/12/22 13:15:58;;;;;;;;;9.25;8.50;;;;;14.06;71.04;100621.81;4937379;28;45558;-79
2022/12/22 13:18:24;;;;;;;;;15.00;12.00;;;;;14.00;71.76;100617.50;4935237;28;45376;-81
2022/12/22 13:21:26;;;;;;;;;11.25;10.00;;;;;13.93;71.65;100615.03;4941805;28;47982;-79
2022/12/22 13:23:54;;;;;;;;;16.50;10.75;;;;;13.93;72.16;100617.69;4897293;28;45528;-79
2022/12/22 13:26:22;;;;;;;;;7.50;7.00;;;;;13.89;72.27;100617.72;4930295;28;45437;-79
2022/12/22 13:29:00;;;;;;;;;14.25;9.00;;;;;13.86;72.47;100620.44;4932794;28;45499;-79
2022/12/22 13:31:36;;;;;;;;;14.50;9.50;;;;;13.79;72.95;100605.59;4924266;28;45487;-78
2022/12/22 13:34:38;;;;;;;;;12.25;9.00;;;;;13.74;73.14;100599.53;4937750;28;46157;-78
2022/12/22 13:37:14;;;;;;;;;13.50;12.00;;;;;13.73;73.25;100599.53;4934429;28;45464;-79
2022/12/22 13:39:39;;;;;;;;;15.75;10.75;;;;;13.73;73.43;100597.75;4936633;28;46105;-79
2022/12/22 13:42:06;;;;;;;;;12.75;7.25;;;;;13.70;73.65;100594.31;4924059;28;46609;-81
2022/12/22 13:44:33;;;;;;;;;8.00;6.50;;;;;13.66;73.95;100589.06;4937736;28;45329;-80
2022/12/22 13:47:05;;;;;;;;;9.75;8.25;;;;;13.66;74.39;100590.84;4937340;28;46525;-81
2022/12/22 13:49:33;;;;;;;;;13.50;11.00;;;;;13.57;74.50;100577.78;4945278;28;45418;-81
2022/12/22 13:52:00;;;;;;;;;7.75;6.50;;;;;13.57;74.21;100576.00;4930358;28;47437;-80
2022/12/22 13:54:32;;;;;;;;;9.50;6.25;;;;;13.55;74.45;100574.28;4948367;28;45844;-80
2022/12/22 13:57:01;;;;;;;;;12.50;8.00;;;;;13.50;74.98;100582.34;4930037;28;45443;-81
2022/12/22 13:59:34;;;;;;;;;9.00;8.00;;;;;13.49;74.95;100585.00;4934593;28;45487;-81
2022/12/22 14:02:08;;;;;;;;;9.00;5.75;;;;;13.44;75.23;100562.16;4953793;28;48274;-78
2022/12/22 14:04:36;;;;;;;;;8.00;8.00;;;;;13.40;75.30;100559.59;4928881;28;45892;-78
2022/12/22 14:07:17;;;;;;;;;11.25;8.00;;;;;13.36;75.50;100564.03;4953991;28;45468;-79
2022/12/22 14:09:48;;;;;;;;;12.75;9.00;;;;;13.29;75.83;100551.00;4938151;28;45467;-79
2022/12/22 14:12:25;;;;;;;;;12.00;7.75;;;;;13.28;76.00;100542.16;4935477;28;46976;-80
2022/12/22 14:14:53;;;;;;;;;9.50;8.50;;;;;13.23;76.10;100536.06;4948556;28;45386;-78
2022/12/22 14:17:25;;;;;;;;;9.75;8.50;;;;;13.26;76.50;100549.28;4932843;28;45459;-80
2022/12/22 14:20:00;;;;;;;;;8.25;7.00;;;;;13.23;76.71;100538.69;4929903;28;45884;-80
2022/12/22 14:22:43;;;;;;;;;9.00;9.00;;;;;13.23;76.61;100550.16;4939986;28;47629;-78
2022/12/22 14:25:23;;;;;;;;;9.00;7.00;;;;;13.20;76.80;100546.69;4942443;28;45645;-79
2022/12/22 14:27:54;;;;;;;;;4.25;4.25;;;;;13.14;77.02;100530.94;4933358;28;45452;-80
2022/12/22 14:30:27;;;;;;;;;8.00;6.75;;;;;13.17;77.25;100530.88;4935515;28;45341;-79
2022/12/22 14:32:54;;;;;;;;;8.25;8.25;;;;;13.14;77.51;100529.16;4938978;28;46815;-78
2022/12/22 14:35:20;;;;;;;;;10.50;8.50;;;;;13.17;77.23;100560.81;4949514;28;45736;-77
2022/12/22 14:37:52;;;;;;;;;7.00;7.00;;;;;13.10;77.52;100530.13;4941540;28;45816;-78
2022/12/22 14:40:40;;;;;;;;;10.00;6.25;;;;;13.15;78.05;100517.72;4940369;28;45676;-79
2022/12/22 14:43:18;;;;;;;;;13.00;7.25;;;;;13.17;78.13;100496.53;4941200;28;45433;-77
2022/12/22 14:45:46;;;;;;;;;8.00;7.00;;;;;13.17;77.93;100493.88;4938808;28;45505;-77
2022/12/22 14:48:27;;;;;;;;;5.75;5.50;;;;;13.19;77.80;100487.66;4953831;28;45866;-78
2022/12/22 14:50:53;;;;;;;;;7.33;5.33;;;;;13.22;78.06;100482.31;4928442;28;45861;-80
2022/12/22 14:53:26;;;;;;;;;8.33;7.00;;;;;13.21;77.80;100472.66;4940777;28;45406;-78
2022/12/22 14:55:52;;;;;;;;;7.00;4.67;;;;;13.18;78.00;100464.78;4939223;28;45451;-80
2022/12/22 14:58:33;;;;;;;;;6.75;6.00;;;;;13.27;77.83;100471.69;4938566;28;45410;-78
2022/12/22 15:01:27;;;;;;;;;6.25;5.00;;;;;13.30;78.37;100465.47;4954368;28;45398;-78
2022/12/22 15:04:04;;;;;;;;;4.00;4.00;;;;;13.26;78.13;100456.75;4924391;28;46279;-78
2022/12/22 15:06:42;;;;;;;;;8.00;6.25;;;;;13.34;78.55;100456.56;4936303;28;45493;-80
2022/12/22 15:09:24;;;;;;;;;8.75;6.25;;;;;13.36;78.32;100450.34;4934679;28;45538;-79
2022/12/22 15:11:53;;;;;;;;;6.67;3.67;;;;;13.39;78.36;100439.75;4929860;28;45632;-78